sensor_id;sensor_type;location;lat;lon;timestamp;P1;durP1;ratioP1;P2;durP2;ratioP2
3253;SDS011;1639;42.804;23.342;2024-02-21T00:00:35;19.80;;;8.57;;
3253;SDS011;1639;42.804;23.342;2024-02-21T00:03:00;14.53;;;7.63;;
3253;SDS011;1639;42.804;23.342;2024-02-21T00:05:27;8.90;;;6.90;;
3253;SDS011;1639;42.804;23.342;2024-02-21T00:07:52;12.37;;;7.63;;
3253;SDS011;1639;42.804;23.342;2024-02-21T00:10:18;10.03;;;7.10;;
3253;SDS011;1639;42.804;23.342;2024-02-21T00:12:43;10.90;;;7.50;;
3253;SDS011;1639;42.804;23.342;2024-02-21T00:15:09;8.63;;;6.67;;
3253;SDS011;1639;42.804;23.342;2024-02-21T00:17:34;8.27;;;5.10;;
3253;SDS011;1639;42.804;23.342;2024-02-21T00:19:59;9.53;;;6.03;;
3253;SDS011;1639;42.804;23.342;2024-02-21T00:22:25;8.90;;;5.50;;
3253;SDS011;1639;42.804;23.342;2024-02-21T00:24:53;12.57;;;6.00;;
3253;SDS011;1639;42.804;23.342;2024-02-21T00:27:19;10.03;;;6.27;;
3253;SDS011;1639;42.804;23.342;2024-02-21T00:29:44;9.60;;;6.40;;
3253;SDS011;1639;42.804;23.342;2024-02-21T00:32:10;10.30;;;6.17;;
3253;SDS011;1639;42.804;23.342;2024-02-21T00:34:35;13.70;;;6.10;;
3253;SDS011;1639;42.804;23.342;2024-02-21T00:37:00;11.30;;;6.97;;
3253;SDS011;1639;42.804;23.342;2024-02-21T00:39:26;8.90;;;6.20;;
3253;SDS011;1639;42.804;23.342;2024-02-21T00:41:51;11.83;;;7.50;;
3253;SDS011;1639;42.804;23.342;2024-02-21T00:44:16;10.53;;;5.67;;
3253;SDS011;1639;42.804;23.342;2024-02-21T00:46:42;9.80;;;5.90;;
3253;SDS011;1639;42.804;23.342;2024-02-21T00:49:07;9.47;;;7.10;;
3253;SDS011;1639;42.804;23.342;2024-02-21T00:51:33;8.60;;;5.53;;
3253;SDS011;1639;42.804;23.342;2024-02-21T00:53:58;11.30;;;6.40;;
3253;SDS011;1639;42.804;23.342;2024-02-21T00:56:23;8.13;;;5.60;;
3253;SDS011;1639;42.804;23.342;2024-02-21T00:58:49;10.53;;;6.73;;
3253;SDS011;1639;42.804;23.342;2024-02-21T01:01:20;15.60;;;7.43;;
3253;SDS011;1639;42.804;23.342;2024-02-21T01:03:47;8.80;;;6.50;;
3253;SDS011;1639;42.804;23.342;2024-02-21T01:06:13;11.47;;;6.67;;
3253;SDS011;1639;42.804;23.342;2024-02-21T01:08:38;10.70;;;7.37;;
3253;SDS011;1639;42.804;23.342;2024-02-21T01:11:04;9.50;;;6.20;;
3253;SDS011;1639;42.804;23.342;2024-02-21T01:13:29;10.27;;;7.37;;
3253;SDS011;1639;42.804;23.342;2024-02-21T01:15:54;10.63;;;7.63;;
3253;SDS011;1639;42.804;23.342;2024-02-21T01:18:20;10.63;;;7.83;;
3253;SDS011;1639;42.804;23.342;2024-02-21T01:20:45;11.00;;;7.10;;
3253;SDS011;1639;42.804;23.342;2024-02-21T01:23:10;11.23;;;7.50;;
3253;SDS011;1639;42.804;23.342;2024-02-21T01:25:36;11.57;;;7.70;;
3253;SDS011;1639;42.804;23.342;2024-02-21T01:28:01;10.77;;;7.10;;
3253;SDS011;1639;42.804;23.342;2024-02-21T01:30:26;11.90;;;7.60;;
3253;SDS011;1639;42.804;23.342;2024-02-21T01:32:52;11.30;;;6.70;;
3253;SDS011;1639;42.804;23.342;2024-02-21T01:35:17;8.97;;;6.70;;
3253;SDS011;1639;42.804;23.342;2024-02-21T01:37:43;11.00;;;7.33;;
3253;SDS011;1639;42.804;23.342;2024-02-21T01:40:09;8.87;;;6.40;;
3253;SDS011;1639;42.804;23.342;2024-02-21T01:42:37;10.80;;;6.83;;
3253;SDS011;1639;42.804;23.342;2024-02-21T01:45:04;10.33;;;7.90;;
3253;SDS011;1639;42.804;23.342;2024-02-21T01:47:30;8.63;;;6.80;;
3253;SDS011;1639;42.804;23.342;2024-02-21T01:49:56;10.17;;;6.70;;
3253;SDS011;1639;42.804;23.342;2024-02-21T01:52:21;9.90;;;6.73;;
3253;SDS011;1639;42.804;23.342;2024-02-21T01:54:47;9.40;;;6.03;;
3253;SDS011;1639;42.804;23.342;2024-02-21T01:57:13;14.13;;;7.40;;
3253;SDS011;1639;42.804;23.342;2024-02-21T01:59:39;12.53;;;7.13;;
3253;SDS011;1639;42.804;23.342;2024-02-21T02:02:05;27.53;;;16.73;;
3253;SDS011;1639;42.804;23.342;2024-02-21T02:04:30;32.13;;;25.13;;
3253;SDS011;1639;42.804;23.342;2024-02-21T02:06:56;12.03;;;10.00;;
3253;SDS011;1639;42.804;23.342;2024-02-21T02:09:25;10.43;;;7.10;;
3253;SDS011;1639;42.804;23.342;2024-02-21T02:11:50;9.40;;;6.27;;
3253;SDS011;1639;42.804;23.342;2024-02-21T02:14:16;9.10;;;6.03;;
3253;SDS011;1639;42.804;23.342;2024-02-21T02:16:41;10.97;;;6.40;;
3253;SDS011;1639;42.804;23.342;2024-02-21T02:19:06;9.27;;;6.80;;
3253;SDS011;1639;42.804;23.342;2024-02-21T02:21:32;9.13;;;6.63;;
3253;SDS011;1639;42.804;23.342;2024-02-21T02:24:02;9.50;;;6.20;;
3253;SDS011;1639;42.804;23.342;2024-02-21T02:26:28;12.33;;;6.97;;
3253;SDS011;1639;42.804;23.342;2024-02-21T02:28:53;13.83;;;6.80;;
3253;SDS011;1639;42.804;23.342;2024-02-21T02:31:18;11.87;;;6.87;;
3253;SDS011;1639;42.804;23.342;2024-02-21T02:33:44;11.33;;;6.60;;
3253;SDS011;1639;42.804;23.342;2024-02-21T02:36:09;11.33;;;7.80;;
3253;SDS011;1639;42.804;23.342;2024-02-21T02:38:35;11.23;;;6.80;;
3253;SDS011;1639;42.804;23.342;2024-02-21T02:41:00;9.60;;;7.20;;
3253;SDS011;1639;42.804;23.342;2024-02-21T02:43:25;12.53;;;7.13;;
3253;SDS011;1639;42.804;23.342;2024-02-21T02:45:51;13.40;;;7.30;;
3253;SDS011;1639;42.804;23.342;2024-02-21T02:48:16;8.97;;;5.90;;
3253;SDS011;1639;42.804;23.342;2024-02-21T02:50:41;11.33;;;7.50;;
3253;SDS011;1639;42.804;23.342;2024-02-21T02:53:07;11.03;;;7.93;;
3253;SDS011;1639;42.804;23.342;2024-02-21T02:55:32;16.50;;;8.93;;
3253;SDS011;1639;42.804;23.342;2024-02-21T02:57:58;10.23;;;7.67;;
3253;SDS011;1639;42.804;23.342;2024-02-21T03:00:23;11.77;;;7.80;;
3253;SDS011;1639;42.804;23.342;2024-02-21T03:02:49;14.90;;;8.13;;
3253;SDS011;1639;42.804;23.342;2024-02-21T03:05:24;12.47;;;7.80;;
3253;SDS011;1639;42.804;23.342;2024-02-21T03:07:49;8.50;;;7.30;;
3253;SDS011;1639;42.804;23.342;2024-02-21T03:10:14;10.37;;;7.13;;
3253;SDS011;1639;42.804;23.342;2024-02-21T03:12:41;10.87;;;6.63;;
3253;SDS011;1639;42.804;23.342;2024-02-21T03:15:07;17.27;;;7.90;;
3253;SDS011;1639;42.804;23.342;2024-02-21T03:17:33;10.73;;;7.93;;
3253;SDS011;1639;42.804;23.342;2024-02-21T03:20:04;15.80;;;8.53;;
3253;SDS011;1639;42.804;23.342;2024-02-21T03:22:31;19.63;;;8.30;;
3253;SDS011;1639;42.804;23.342;2024-02-21T03:24:57;12.97;;;8.17;;
3253;SDS011;1639;42.804;23.342;2024-02-21T03:27:23;12.23;;;8.07;;
3253;SDS011;1639;42.804;23.342;2024-02-21T03:29:48;10.10;;;7.60;;
3253;SDS011;1639;42.804;23.342;2024-02-21T03:32:13;14.97;;;9.10;;
3253;SDS011;1639;42.804;23.342;2024-02-21T03:34:39;11.67;;;8.10;;
3253;SDS011;1639;42.804;23.342;2024-02-21T03:37:04;9.37;;;7.57;;
3253;SDS011;1639;42.804;23.342;2024-02-21T03:39:33;15.40;;;8.57;;
3253;SDS011;1639;42.804;23.342;2024-02-21T03:41:58;12.30;;;7.47;;
3253;SDS011;1639;42.804;23.342;2024-02-21T03:44:29;8.70;;;6.63;;
3253;SDS011;1639;42.804;23.342;2024-02-21T03:46:55;9.70;;;8.00;;
3253;SDS011;1639;42.804;23.342;2024-02-21T03:49:21;32.77;;;23.17;;
3253;SDS011;1639;42.804;23.342;2024-02-21T03:51:46;25.37;;;11.17;;
3253;SDS011;1639;42.804;23.342;2024-02-21T03:54:11;14.73;;;11.97;;
3253;SDS011;1639;42.804;23.342;2024-02-21T03:56:37;13.07;;;10.10;;
3253;SDS011;1639;42.804;23.342;2024-02-21T03:59:05;11.63;;;8.40;;
3253;SDS011;1639;42.804;23.342;2024-02-21T04:01:31;12.23;;;8.70;;
3253;SDS011;1639;42.804;23.342;2024-02-21T04:03:56;15.80;;;12.77;;
3253;SDS011;1639;42.804;23.342;2024-02-21T04:06:21;18.73;;;13.73;;
3253;SDS011;1639;42.804;23.342;2024-02-21T04:08:47;17.57;;;13.00;;
3253;SDS011;1639;42.804;23.342;2024-02-21T04:11:12;18.10;;;14.50;;
3253;SDS011;1639;42.804;23.342;2024-02-21T04:13:37;17.43;;;15.40;;
3253;SDS011;1639;42.804;23.342;2024-02-21T04:16:03;15.40;;;12.50;;
3253;SDS011;1639;42.804;23.342;2024-02-21T04:18:29;20.73;;;13.87;;
3253;SDS011;1639;42.804;23.342;2024-02-21T04:20:55;13.80;;;12.33;;
3253;SDS011;1639;42.804;23.342;2024-02-21T04:23:20;18.07;;;12.07;;
3253;SDS011;1639;42.804;23.342;2024-02-21T04:25:45;17.80;;;12.13;;
3253;SDS011;1639;42.804;23.342;2024-02-21T04:28:11;19.37;;;11.60;;
3253;SDS011;1639;42.804;23.342;2024-02-21T04:30:36;16.07;;;11.53;;
3253;SDS011;1639;42.804;23.342;2024-02-21T04:33:01;18.37;;;13.33;;
3253;SDS011;1639;42.804;23.342;2024-02-21T04:35:27;16.27;;;12.87;;
3253;SDS011;1639;42.804;23.342;2024-02-21T04:37:52;20.03;;;12.70;;
3253;SDS011;1639;42.804;23.342;2024-02-21T04:40:17;20.20;;;12.00;;
3253;SDS011;1639;42.804;23.342;2024-02-21T04:42:43;12.53;;;7.77;;
3253;SDS011;1639;42.804;23.342;2024-02-21T04:45:09;12.63;;;8.50;;
3253;SDS011;1639;42.804;23.342;2024-02-21T04:47:34;16.17;;;8.63;;
3253;SDS011;1639;42.804;23.342;2024-02-21T04:50:00;12.83;;;9.50;;
3253;SDS011;1639;42.804;23.342;2024-02-21T04:52:25;18.17;;;9.10;;
3253;SDS011;1639;42.804;23.342;2024-02-21T04:54:51;27.83;;;21.70;;
3253;SDS011;1639;42.804;23.342;2024-02-21T04:57:16;21.63;;;15.80;;
3253;SDS011;1639;42.804;23.342;2024-02-21T04:59:45;19.80;;;16.20;;
3253;SDS011;1639;42.804;23.342;2024-02-21T05:02:12;26.27;;;16.50;;
3253;SDS011;1639;42.804;23.342;2024-02-21T05:04:38;22.73;;;14.03;;
3253;SDS011;1639;42.804;23.342;2024-02-21T05:07:04;20.17;;;11.50;;
3253;SDS011;1639;42.804;23.342;2024-02-21T05:09:30;10.07;;;8.10;;
3253;SDS011;1639;42.804;23.342;2024-02-21T05:11:55;12.40;;;9.27;;
3253;SDS011;1639;42.804;23.342;2024-02-21T05:14:21;9.47;;;7.10;;
3253;SDS011;1639;42.804;23.342;2024-02-21T05:16:46;10.97;;;8.27;;
3253;SDS011;1639;42.804;23.342;2024-02-21T05:19:12;10.67;;;8.63;;
3253;SDS011;1639;42.804;23.342;2024-02-21T05:21:37;11.23;;;8.20;;
3253;SDS011;1639;42.804;23.342;2024-02-21T05:24:03;13.67;;;9.97;;
3253;SDS011;1639;42.804;23.342;2024-02-21T05:26:28;31.03;;;19.87;;
3253;SDS011;1639;42.804;23.342;2024-02-21T05:28:54;13.30;;;8.33;;
3253;SDS011;1639;42.804;23.342;2024-02-21T05:31:19;9.50;;;6.50;;
3253;SDS011;1639;42.804;23.342;2024-02-21T05:33:46;14.13;;;7.77;;
3253;SDS011;1639;42.804;23.342;2024-02-21T05:36:11;15.63;;;9.00;;
3253;SDS011;1639;42.804;23.342;2024-02-21T05:38:37;13.43;;;8.80;;
3253;SDS011;1639;42.804;23.342;2024-02-21T05:41:03;10.60;;;7.13;;
3253;SDS011;1639;42.804;23.342;2024-02-21T05:43:29;10.10;;;6.80;;
3253;SDS011;1639;42.804;23.342;2024-02-21T05:45:54;17.10;;;8.43;;
3253;SDS011;1639;42.804;23.342;2024-02-21T05:48:20;12.07;;;9.00;;
3253;SDS011;1639;42.804;23.342;2024-02-21T05:50:46;14.70;;;10.00;;
3253;SDS011;1639;42.804;23.342;2024-02-21T05:53:12;21.97;;;17.87;;
3253;SDS011;1639;42.804;23.342;2024-02-21T05:55:38;28.50;;;16.40;;
3253;SDS011;1639;42.804;23.342;2024-02-21T05:58:04;13.83;;;8.67;;
3253;SDS011;1639;42.804;23.342;2024-02-21T06:00:30;11.17;;;7.40;;
3253;SDS011;1639;42.804;23.342;2024-02-21T06:02:56;12.57;;;8.77;;
3253;SDS011;1639;42.804;23.342;2024-02-21T06:05:21;13.23;;;8.10;;
3253;SDS011;1639;42.804;23.342;2024-02-21T06:07:46;23.20;;;10.07;;
3253;SDS011;1639;42.804;23.342;2024-02-21T06:10:12;17.87;;;12.23;;
3253;SDS011;1639;42.804;23.342;2024-02-21T06:12:37;14.50;;;11.80;;
3253;SDS011;1639;42.804;23.342;2024-02-21T06:15:03;14.03;;;8.80;;
3253;SDS011;1639;42.804;23.342;2024-02-21T06:17:28;10.07;;;9.03;;
3253;SDS011;1639;42.804;23.342;2024-02-21T06:19:54;15.23;;;10.40;;
3253;SDS011;1639;42.804;23.342;2024-02-21T06:22:19;16.33;;;10.90;;
3253;SDS011;1639;42.804;23.342;2024-02-21T06:24:44;34.03;;;14.67;;
3253;SDS011;1639;42.804;23.342;2024-02-21T06:27:10;24.20;;;16.50;;
3253;SDS011;1639;42.804;23.342;2024-02-21T06:29:36;20.73;;;18.50;;
3253;SDS011;1639;42.804;23.342;2024-02-21T06:32:02;22.77;;;18.17;;
3253;SDS011;1639;42.804;23.342;2024-02-21T06:34:27;23.70;;;16.00;;
3253;SDS011;1639;42.804;23.342;2024-02-21T06:36:53;43.87;;;34.40;;
3253;SDS011;1639;42.804;23.342;2024-02-21T06:39:18;34.53;;;25.20;;
3253;SDS011;1639;42.804;23.342;2024-02-21T06:41:44;29.07;;;20.10;;
3253;SDS011;1639;42.804;23.342;2024-02-21T06:44:09;25.63;;;22.13;;
3253;SDS011;1639;42.804;23.342;2024-02-21T06:46:35;24.90;;;19.53;;
3253;SDS011;1639;42.804;23.342;2024-02-21T06:49:00;25.17;;;20.67;;
3253;SDS011;1639;42.804;23.342;2024-02-21T06:51:26;25.80;;;19.67;;
3253;SDS011;1639;42.804;23.342;2024-02-21T06:53:53;23.60;;;21.00;;
3253;SDS011;1639;42.804;23.342;2024-02-21T06:56:19;27.07;;;20.57;;
3253;SDS011;1639;42.804;23.342;2024-02-21T06:58:44;26.00;;;21.40;;
3253;SDS011;1639;42.804;23.342;2024-02-21T07:01:10;21.63;;;18.80;;
3253;SDS011;1639;42.804;23.342;2024-02-21T07:03:36;33.20;;;19.57;;
3253;SDS011;1639;42.804;23.342;2024-02-21T07:06:01;34.57;;;18.17;;
3253;SDS011;1639;42.804;23.342;2024-02-21T07:08:27;22.80;;;17.30;;
3253;SDS011;1639;42.804;23.342;2024-02-21T07:10:52;29.13;;;20.30;;
3253;SDS011;1639;42.804;23.342;2024-02-21T07:13:18;25.13;;;17.23;;
3253;SDS011;1639;42.804;23.342;2024-02-21T07:15:43;21.87;;;18.87;;
3253;SDS011;1639;42.804;23.342;2024-02-21T07:18:08;20.47;;;18.30;;
3253;SDS011;1639;42.804;23.342;2024-02-21T07:20:34;25.00;;;17.97;;
3253;SDS011;1639;42.804;23.342;2024-02-21T07:23:02;24.90;;;17.93;;
3253;SDS011;1639;42.804;23.342;2024-02-21T07:25:27;22.40;;;16.70;;
3253;SDS011;1639;42.804;23.342;2024-02-21T07:27:53;26.97;;;17.10;;
3253;SDS011;1639;42.804;23.342;2024-02-21T07:30:18;21.10;;;16.30;;
3253;SDS011;1639;42.804;23.342;2024-02-21T07:32:43;17.10;;;15.17;;
3253;SDS011;1639;42.804;23.342;2024-02-21T07:35:09;19.07;;;13.20;;
3253;SDS011;1639;42.804;23.342;2024-02-21T07:37:36;19.70;;;12.90;;
3253;SDS011;1639;42.804;23.342;2024-02-21T07:40:03;16.20;;;12.40;;
3253;SDS011;1639;42.804;23.342;2024-02-21T07:42:30;17.30;;;11.90;;
3253;SDS011;1639;42.804;23.342;2024-02-21T07:44:55;15.40;;;12.17;;
3253;SDS011;1639;42.804;23.342;2024-02-21T07:47:21;18.67;;;14.03;;
3253;SDS011;1639;42.804;23.342;2024-02-21T07:49:47;19.33;;;10.90;;
3253;SDS011;1639;42.804;23.342;2024-02-21T07:52:13;18.40;;;10.70;;
3253;SDS011;1639;42.804;23.342;2024-02-21T07:54:39;17.73;;;12.10;;
3253;SDS011;1639;42.804;23.342;2024-02-21T07:57:04;14.37;;;10.10;;
3253;SDS011;1639;42.804;23.342;2024-02-21T07:59:30;17.60;;;12.93;;
3253;SDS011;1639;42.804;23.342;2024-02-21T08:01:56;16.17;;;11.17;;
3253;SDS011;1639;42.804;23.342;2024-02-21T08:04:22;15.50;;;10.50;;
3253;SDS011;1639;42.804;23.342;2024-02-21T08:06:51;15.63;;;9.93;;
3253;SDS011;1639;42.804;23.342;2024-02-21T08:09:18;17.47;;;14.30;;
3253;SDS011;1639;42.804;23.342;2024-02-21T08:11:44;19.43;;;15.23;;
3253;SDS011;1639;42.804;23.342;2024-02-21T08:14:09;18.30;;;15.67;;
3253;SDS011;1639;42.804;23.342;2024-02-21T08:16:35;15.90;;;13.60;;
3253;SDS011;1639;42.804;23.342;2024-02-21T08:19:00;19.00;;;14.43;;
3253;SDS011;1639;42.804;23.342;2024-02-21T08:21:27;21.87;;;12.50;;
3253;SDS011;1639;42.804;23.342;2024-02-21T08:23:53;16.50;;;12.23;;
3253;SDS011;1639;42.804;23.342;2024-02-21T08:26:19;19.53;;;15.87;;
3253;SDS011;1639;42.804;23.342;2024-02-21T08:28:44;18.87;;;13.23;;
3253;SDS011;1639;42.804;23.342;2024-02-21T08:31:10;13.30;;;11.53;;
3253;SDS011;1639;42.804;23.342;2024-02-21T08:33:35;21.30;;;13.97;;
3253;SDS011;1639;42.804;23.342;2024-02-21T08:36:01;21.63;;;15.13;;
3253;SDS011;1639;42.804;23.342;2024-02-21T08:38:26;21.27;;;15.70;;
3253;SDS011;1639;42.804;23.342;2024-02-21T08:40:51;19.23;;;13.07;;
3253;SDS011;1639;42.804;23.342;2024-02-21T08:43:17;16.70;;;14.83;;
3253;SDS011;1639;42.804;23.342;2024-02-21T08:45:42;22.60;;;15.20;;
3253;SDS011;1639;42.804;23.342;2024-02-21T08:48:08;21.93;;;16.50;;
3253;SDS011;1639;42.804;23.342;2024-02-21T08:50:33;21.47;;;15.90;;
3253;SDS011;1639;42.804;23.342;2024-02-21T08:52:58;18.47;;;13.40;;
3253;SDS011;1639;42.804;23.342;2024-02-21T08:55:24;12.50;;;11.20;;
3253;SDS011;1639;42.804;23.342;2024-02-21T08:57:49;14.50;;;11.87;;
3253;SDS011;1639;42.804;23.342;2024-02-21T09:00:15;18.37;;;13.50;;
3253;SDS011;1639;42.804;23.342;2024-02-21T09:02:41;15.00;;;11.80;;
3253;SDS011;1639;42.804;23.342;2024-02-21T09:05:09;15.83;;;11.40;;
3253;SDS011;1639;42.804;23.342;2024-02-21T09:07:35;26.10;;;13.43;;
3253;SDS011;1639;42.804;23.342;2024-02-21T09:10:00;16.77;;;11.53;;
3253;SDS011;1639;42.804;23.342;2024-02-21T09:12:26;13.57;;;11.53;;
3253;SDS011;1639;42.804;23.342;2024-02-21T09:14:51;15.67;;;12.60;;
3253;SDS011;1639;42.804;23.342;2024-02-21T09:17:17;21.10;;;12.20;;
3253;SDS011;1639;42.804;23.342;2024-02-21T09:19:43;12.37;;;9.20;;
3253;SDS011;1639;42.804;23.342;2024-02-21T09:22:09;17.03;;;11.30;;
3253;SDS011;1639;42.804;23.342;2024-02-21T09:24:34;13.20;;;10.23;;
3253;SDS011;1639;42.804;23.342;2024-02-21T09:27:00;22.50;;;11.50;;
3253;SDS011;1639;42.804;23.342;2024-02-21T09:29:25;15.73;;;11.27;;
3253;SDS011;1639;42.804;23.342;2024-02-21T09:31:51;12.50;;;11.13;;
3253;SDS011;1639;42.804;23.342;2024-02-21T09:34:17;13.33;;;10.00;;
3253;SDS011;1639;42.804;23.342;2024-02-21T09:36:42;14.13;;;11.00;;
3253;SDS011;1639;42.804;23.342;2024-02-21T09:39:09;13.00;;;10.90;;
3253;SDS011;1639;42.804;23.342;2024-02-21T09:41:39;14.90;;;11.17;;
3253;SDS011;1639;42.804;23.342;2024-02-21T09:44:13;19.57;;;10.70;;
3253;SDS011;1639;42.804;23.342;2024-02-21T09:49:34;19.40;;;12.70;;
3253;SDS011;1639;42.804;23.342;2024-02-21T09:52:04;14.60;;;10.80;;
3253;SDS011;1639;42.804;23.342;2024-02-21T09:54:32;17.00;;;10.27;;
3253;SDS011;1639;42.804;23.342;2024-02-21T09:57:02;15.10;;;9.20;;
3253;SDS011;1639;42.804;23.342;2024-02-21T09:59:29;11.70;;;8.93;;
3253;SDS011;1639;42.804;23.342;2024-02-21T10:01:56;16.43;;;9.90;;
3253;SDS011;1639;42.804;23.342;2024-02-21T10:04:21;14.13;;;10.20;;
3253;SDS011;1639;42.804;23.342;2024-02-21T10:06:47;14.70;;;9.67;;
3253;SDS011;1639;42.804;23.342;2024-02-21T10:09:22;19.53;;;10.53;;
3253;SDS011;1639;42.804;23.342;2024-02-21T10:11:49;10.57;;;8.10;;
3253;SDS011;1639;42.804;23.342;2024-02-21T10:14:16;13.80;;;10.07;;
3253;SDS011;1639;42.804;23.342;2024-02-21T10:16:42;14.13;;;10.87;;
3253;SDS011;1639;42.804;23.342;2024-02-21T10:19:15;15.20;;;10.37;;
3253;SDS011;1639;42.804;23.342;2024-02-21T10:21:44;14.43;;;10.10;;
3253;SDS011;1639;42.804;23.342;2024-02-21T10:24:11;19.13;;;11.47;;
3253;SDS011;1639;42.804;23.342;2024-02-21T10:26:37;22.03;;;12.20;;
3253;SDS011;1639;42.804;23.342;2024-02-21T10:29:03;13.60;;;11.37;;
3253;SDS011;1639;42.804;23.342;2024-02-21T10:31:29;11.60;;;10.30;;
3253;SDS011;1639;42.804;23.342;2024-02-21T10:36:20;19.93;;;11.73;;
3253;SDS011;1639;42.804;23.342;2024-02-21T10:38:45;12.13;;;8.33;;
3253;SDS011;1639;42.804;23.342;2024-02-21T10:41:12;13.70;;;9.07;;
3253;SDS011;1639;42.804;23.342;2024-02-21T10:43:41;16.53;;;10.80;;
3253;SDS011;1639;42.804;23.342;2024-02-21T10:46:07;11.93;;;8.23;;
3253;SDS011;1639;42.804;23.342;2024-02-21T10:48:38;15.93;;;8.50;;
3253;SDS011;1639;42.804;23.342;2024-02-21T10:51:11;12.90;;;9.30;;
3253;SDS011;1639;42.804;23.342;2024-02-21T10:56:47;9.90;;;7.60;;
3253;SDS011;1639;42.804;23.342;2024-02-21T10:59:14;13.80;;;8.37;;
3253;SDS011;1639;42.804;23.342;2024-02-21T11:01:42;8.90;;;7.17;;
3253;SDS011;1639;42.804;23.342;2024-02-21T11:04:08;9.00;;;7.07;;
3253;SDS011;1639;42.804;23.342;2024-02-21T11:06:36;13.30;;;6.47;;
3253;SDS011;1639;42.804;23.342;2024-02-21T11:09:04;10.17;;;7.30;;
3253;SDS011;1639;42.804;23.342;2024-02-21T11:11:40;13.17;;;8.40;;
3253;SDS011;1639;42.804;23.342;2024-02-21T11:14:07;11.87;;;8.50;;
3253;SDS011;1639;42.804;23.342;2024-02-21T11:16:38;12.70;;;7.20;;
3253;SDS011;1639;42.804;23.342;2024-02-21T11:19:08;11.70;;;8.10;;
3253;SDS011;1639;42.804;23.342;2024-02-21T11:21:36;11.00;;;7.53;;
3253;SDS011;1639;42.804;23.342;2024-02-21T11:24:05;10.23;;;7.03;;
3253;SDS011;1639;42.804;23.342;2024-02-21T11:26:31;8.00;;;6.10;;
3253;SDS011;1639;42.804;23.342;2024-02-21T11:29:00;9.80;;;6.93;;
3253;SDS011;1639;42.804;23.342;2024-02-21T11:31:37;9.87;;;6.97;;
3253;SDS011;1639;42.804;23.342;2024-02-21T11:34:04;9.40;;;5.93;;
3253;SDS011;1639;42.804;23.342;2024-02-21T11:36:29;13.23;;;5.80;;
3253;SDS011;1639;42.804;23.342;2024-02-21T11:38:55;9.03;;;5.93;;
3253;SDS011;1639;42.804;23.342;2024-02-21T11:41:29;11.00;;;6.90;;
3253;SDS011;1639;42.804;23.342;2024-02-21T11:43:54;10.43;;;6.50;;
3253;SDS011;1639;42.804;23.342;2024-02-21T11:46:20;11.23;;;6.63;;
3253;SDS011;1639;42.804;23.342;2024-02-21T11:48:46;7.80;;;5.30;;
3253;SDS011;1639;42.804;23.342;2024-02-21T11:51:20;9.63;;;6.07;;
3253;SDS011;1639;42.804;23.342;2024-02-21T11:53:48;13.90;;;6.60;;
3253;SDS011;1639;42.804;23.342;2024-02-21T11:56:13;9.40;;;6.53;;
3253;SDS011;1639;42.804;23.342;2024-02-21T11:58:39;9.83;;;5.73;;
3253;SDS011;1639;42.804;23.342;2024-02-21T12:01:04;11.83;;;5.93;;
3253;SDS011;1639;42.804;23.342;2024-02-21T12:03:31;8.07;;;5.40;;
3253;SDS011;1639;42.804;23.342;2024-02-21T12:05:56;8.10;;;6.20;;
3253;SDS011;1639;42.804;23.342;2024-02-21T12:08:23;8.57;;;5.73;;
3253;SDS011;1639;42.804;23.342;2024-02-21T12:10:49;9.00;;;5.43;;
3253;SDS011;1639;42.804;23.342;2024-02-21T12:13:16;9.83;;;6.03;;
3253;SDS011;1639;42.804;23.342;2024-02-21T12:15:41;8.03;;;5.70;;
3253;SDS011;1639;42.804;23.342;2024-02-21T12:18:13;7.83;;;5.30;;
3253;SDS011;1639;42.804;23.342;2024-02-21T12:20:40;7.40;;;5.17;;
3253;SDS011;1639;42.804;23.342;2024-02-21T12:23:08;10.80;;;5.43;;
3253;SDS011;1639;42.804;23.342;2024-02-21T12:25:35;8.50;;;5.70;;
3253;SDS011;1639;42.804;23.342;2024-02-21T12:28:00;8.77;;;5.97;;
3253;SDS011;1639;42.804;23.342;2024-02-21T12:30:25;8.97;;;5.10;;
3253;SDS011;1639;42.804;23.342;2024-02-21T12:32:51;13.20;;;7.50;;
3253;SDS011;1639;42.804;23.342;2024-02-21T12:35:16;15.13;;;8.37;;
3253;SDS011;1639;42.804;23.342;2024-02-21T12:37:42;12.40;;;8.57;;
3253;SDS011;1639;42.804;23.342;2024-02-21T12:40:08;11.20;;;8.20;;
3253;SDS011;1639;42.804;23.342;2024-02-21T12:42:35;13.27;;;7.87;;
3253;SDS011;1639;42.804;23.342;2024-02-21T12:45:01;14.63;;;11.20;;
3253;SDS011;1639;42.804;23.342;2024-02-21T12:47:28;11.37;;;7.77;;
3253;SDS011;1639;42.804;23.342;2024-02-21T12:49:53;13.23;;;9.70;;
3253;SDS011;1639;42.804;23.342;2024-02-21T12:52:19;13.60;;;8.40;;
3253;SDS011;1639;42.804;23.342;2024-02-21T12:54:44;10.63;;;8.87;;
3253;SDS011;1639;42.804;23.342;2024-02-21T12:57:10;10.27;;;7.37;;
3253;SDS011;1639;42.804;23.342;2024-02-21T12:59:35;9.03;;;5.60;;
3253;SDS011;1639;42.804;23.342;2024-02-21T13:02:00;10.27;;;7.60;;
3253;SDS011;1639;42.804;23.342;2024-02-21T13:04:26;11.20;;;7.03;;
3253;SDS011;1639;42.804;23.342;2024-02-21T13:06:51;12.07;;;6.57;;
3253;SDS011;1639;42.804;23.342;2024-02-21T13:09:17;12.07;;;8.40;;
3253;SDS011;1639;42.804;23.342;2024-02-21T13:11:43;10.73;;;7.10;;
3253;SDS011;1639;42.804;23.342;2024-02-21T13:14:11;12.60;;;7.70;;
3253;SDS011;1639;42.804;23.342;2024-02-21T13:16:36;12.77;;;9.87;;
3253;SDS011;1639;42.804;23.342;2024-02-21T13:19:04;12.80;;;8.60;;
3253;SDS011;1639;42.804;23.342;2024-02-21T13:21:30;11.77;;;8.27;;
3253;SDS011;1639;42.804;23.342;2024-02-21T13:23:55;22.97;;;11.77;;
3253;SDS011;1639;42.804;23.342;2024-02-21T13:26:21;11.10;;;7.47;;
3253;SDS011;1639;42.804;23.342;2024-02-21T13:28:47;17.80;;;7.40;;
3253;SDS011;1639;42.804;23.342;2024-02-21T13:31:13;9.53;;;7.67;;
3253;SDS011;1639;42.804;23.342;2024-02-21T13:33:39;9.03;;;6.97;;
3253;SDS011;1639;42.804;23.342;2024-02-21T13:36:04;12.03;;;9.33;;
3253;SDS011;1639;42.804;23.342;2024-02-21T13:38:30;14.00;;;8.73;;
3253;SDS011;1639;42.804;23.342;2024-02-21T13:40:55;13.30;;;8.60;;
3253;SDS011;1639;42.804;23.342;2024-02-21T13:43:20;10.13;;;7.83;;
3253;SDS011;1639;42.804;23.342;2024-02-21T13:45:55;11.10;;;8.43;;
3253;SDS011;1639;42.804;23.342;2024-02-21T13:48:22;17.00;;;8.53;;
3253;SDS011;1639;42.804;23.342;2024-02-21T13:50:48;14.60;;;9.43;;
3253;SDS011;1639;42.804;23.342;2024-02-21T13:53:13;15.60;;;8.83;;
3253;SDS011;1639;42.804;23.342;2024-02-21T13:55:38;10.57;;;7.17;;
3253;SDS011;1639;42.804;23.342;2024-02-21T13:58:05;15.33;;;8.80;;
3253;SDS011;1639;42.804;23.342;2024-02-21T14:00:31;11.83;;;8.10;;
3253;SDS011;1639;42.804;23.342;2024-02-21T14:02:59;13.37;;;8.20;;
3253;SDS011;1639;42.804;23.342;2024-02-21T14:05:26;11.57;;;7.53;;
3253;SDS011;1639;42.804;23.342;2024-02-21T14:07:51;14.00;;;8.60;;
3253;SDS011;1639;42.804;23.342;2024-02-21T14:10:19;14.03;;;8.57;;
3253;SDS011;1639;42.804;23.342;2024-02-21T14:12:47;12.70;;;9.30;;
3253;SDS011;1639;42.804;23.342;2024-02-21T14:15:13;16.40;;;10.10;;
3253;SDS011;1639;42.804;23.342;2024-02-21T14:17:39;12.83;;;9.47;;
3253;SDS011;1639;42.804;23.342;2024-02-21T14:20:04;13.77;;;10.30;;
3253;SDS011;1639;42.804;23.342;2024-02-21T14:22:31;10.90;;;9.70;;
3253;SDS011;1639;42.804;23.342;2024-02-21T14:24:56;15.57;;;10.80;;
3253;SDS011;1639;42.804;23.342;2024-02-21T14:27:22;13.40;;;8.70;;
3253;SDS011;1639;42.804;23.342;2024-02-21T14:29:47;18.57;;;9.17;;
3253;SDS011;1639;42.804;23.342;2024-02-21T14:32:13;14.50;;;7.43;;
3253;SDS011;1639;42.804;23.342;2024-02-21T14:34:38;13.03;;;9.57;;
3253;SDS011;1639;42.804;23.342;2024-02-21T14:37:04;14.40;;;6.43;;
3253;SDS011;1639;42.804;23.342;2024-02-21T14:39:29;12.80;;;8.13;;
3253;SDS011;1639;42.804;23.342;2024-02-21T14:41:55;10.50;;;7.40;;
3253;SDS011;1639;42.804;23.342;2024-02-21T14:44:20;10.70;;;7.30;;
3253;SDS011;1639;42.804;23.342;2024-02-21T14:46:46;18.60;;;11.03;;